Time;durP1;ratioP1;P1;durP2;ratioP2;P2;SDS_P1;SDS_P2;PMS_P1;PMS_P2;Temp;Humidity;BMP_temperature;BMP_pressure;BME280_temperature;BME280_humidity;BME280_pressure;Samples;Min_cycle;Max_cycle;Signal;HPM_P1;HPM_P2
2023/08/12 00:00:19;;;;;;;3.92;3.53;;;20.80;90.40;;;;;;5012469;28;20367;-58
2023/08/12 00:02:45;;;;;;;4.15;3.67;;;20.80;90.30;;;;;;5011906;28;20041;-54
2023/08/12 00:05:12;;;;;;;4.07;3.63;;;20.70;90.30;;;;;;5012315;28;20034;-54
2023/08/12 00:07:38;;;;;;;5.45;3.78;;;20.70;90.30;;;;;;5012116;28;20046;-57
2023/08/12 00:10:05;;;;;;;6.53;4.10;;;20.70;90.30;;;;;;5011272;28;20028;-56
2023/08/12 00:12:32;;;;;;;4.38;3.92;;;20.70;90.30;;;;;;5013158;28;20133;-55
2023/08/12 00:14:58;;;;;;;5.05;3.83;;;20.70;90.30;;;;;;5010666;28;20508;-56
2023/08/12 00:17:24;;;;;;;4.90;4.07;;;20.70;90.20;;;;;;5011313;28;20053;-56
2023/08/12 00:19:50;;;;;;;5.00;4.03;;;20.70;90.10;;;;;;5012567;28;20488;-58
2023/08/12 00:22:16;;;;;;;5.40;3.90;;;20.70;90.20;;;;;;5010975;28;20498;-55
2023/08/12 00:24:42;;;;;;;3.97;3.60;;;20.70;90.10;;;;;;5011911;28;20029;-52
2023/08/12 00:27:08;;;;;;;4.65;3.90;;;20.70;90.00;;;;;;5000083;28;20022;-57
2023/08/12 00:29:35;;;;;;;3.85;3.42;;;20.70;89.90;;;;;;5010754;28;20355;-55
2023/08/12 00:32:01;;;;;;;5.45;4.00;;;20.70;89.60;;;;;;5011732;28;20026;-57
2023/08/12 00:34:27;;;;;;;4.35;3.85;;;20.70;89.30;;;;;;5004341;28;20503;-54
2023/08/12 00:36:52;;;;;;;4.55;3.80;;;20.70;89.40;;;;;;4992907;28;20026;-57
2023/08/12 00:39:18;;;;;;;4.15;3.72;;;20.60;89.30;;;;;;5007543;28;20508;-54
2023/08/12 00:41:44;;;;;;;5.30;3.90;;;20.70;89.20;;;;;;5012365;28;20056;-56
2023/08/12 00:44:10;;;;;;;3.60;3.30;;;20.60;89.10;;;;;;5012166;28;20026;-57
2023/08/12 00:46:37;;;;;;;5.68;4.00;;;20.60;89.30;;;;;;5012658;28;20026;-57
2023/08/12 00:49:04;;;;;;;4.53;3.42;;;20.60;89.10;;;;;;5012233;28;20018;-57
2023/08/12 00:51:30;;;;;;;5.50;3.78;;;20.60;89.00;;;;;;5012092;28;20040;-53
2023/08/12 00:53:57;;;;;;;4.78;3.80;;;20.60;88.80;;;;;;5012266;28;20389;-57
2023/08/12 00:56:23;;;;;;;3.92;3.50;;;20.60;88.70;;;;;;5012099;28;20057;-56
2023/08/12 00:58:49;;;;;;;4.95;3.92;;;20.60;88.90;;;;;;5011974;28;20083;-53
2023/08/12 01:01:17;;;;;;;5.10;3.70;;;20.60;88.90;;;;;;5012058;28;20433;-56
2023/08/12 01:03:43;;;;;;;5.82;4.07;;;20.60;89.70;;;;;;5012147;28;20037;-57
2023/08/12 01:06:09;;;;;;;4.18;3.78;;;20.60;89.00;;;;;;5011500;28;20429;-58
2023/08/12 01:08:35;;;;;;;5.00;4.18;;;20.60;89.20;;;;;;5011511;28;20033;-56
2023/08/12 01:11:20;;;;;;;6.35;4.03;;;20.60;89.60;;;;;;5012138;28;20025;-56
2023/08/12 01:13:59;;;;;;;4.68;3.90;;;20.60;89.60;;;;;;5011890;28;20057;-57
2023/08/12 01:16:30;;;;;;;5.50;4.20;;;20.60;90.00;;;;;;5011268;28;20061;-57
2023/08/12 01:18:56;;;;;;;5.22;4.50;;;20.60;90.10;;;;;;5011146;28;20117;-57
2023/08/12 01:21:24;;;;;;;5.60;4.47;;;20.60;90.20;;;;;;5008963;28;20072;-56
2023/08/12 01:23:50;;;;;;;5.00;4.15;;;20.60;90.20;;;;;;5008626;28;20493;-57
2023/08/12 01:26:16;;;;;;;5.35;4.60;;;20.60;90.20;;;;;;5005525;28;20022;-57
2023/08/12 01:28:42;;;;;;;4.97;4.47;;;20.60;90.20;;;;;;4992180;28;20537;-53
2023/08/12 01:31:36;;;;;;;5.28;4.22;;;20.50;90.20;;;;;;5004722;28;20401;-57
2023/08/12 01:34:28;;;;;;;5.45;4.60;;;20.60;90.20;;;;;;5011767;28;20030;-57
2023/08/12 01:36:56;;;;;;;4.60;4.10;;;20.60;90.20;;;;;;5011597;28;20033;-57
2023/08/12 01:39:24;;;;;;;5.90;4.57;;;20.50;90.00;;;;;;5011671;28;20046;-57
2023/08/12 01:41:51;;;;;;;6.43;4.72;;;20.50;90.00;;;;;;5011265;28;20033;-57
2023/08/12 01:44:17;;;;;;;4.72;4.20;;;20.50;90.00;;;;;;5011433;28;20137;-57
2023/08/12 01:46:46;;;;;;;5.03;4.13;;;20.50;89.90;;;;;;5011453;28;20072;-56
2023/08/12 01:49:12;;;;;;;6.10;4.35;;;20.50;90.00;;;;;;5011442;28;20038;-57
2023/08/12 01:51:37;;;;;;;4.85;4.35;;;20.50;90.00;;;;;;5011214;28;20385;-57
2023/08/12 01:54:03;;;;;;;5.93;4.30;;;20.50;90.30;;;;;;5011458;28;20185;-55
2023/08/12 01:56:29;;;;;;;4.80;4.28;;;20.50;90.50;;;;;;5011591;28;20097;-56
2023/08/12 01:58:54;;;;;;;5.60;4.55;;;20.50;90.70;;;;;;5011290;28;20037;-53
2023/08/12 02:01:20;;;;;;;5.53;4.65;;;20.50;90.70;;;;;;5011420;28;20030;-57
2023/08/12 02:03:45;;;;;;;5.85;4.80;;;20.40;90.70;;;;;;5011188;28;20080;-57
2023/08/12 02:06:11;;;;;;;6.00;4.53;;;20.50;90.80;;;;;;5011250;28;20026;-57
2023/08/12 02:08:37;;;;;;;5.22;4.20;;;20.50;90.90;;;;;;5011007;28;20030;-54
2023/08/12 02:11:02;;;;;;;6.32;4.57;;;20.50;90.90;;;;;;5011271;28;20037;-57
2023/08/12 02:13:28;;;;;;;5.88;4.60;;;20.40;90.90;;;;;;5011134;28;20030;-57
2023/08/12 02:15:54;;;;;;;5.15;4.60;;;20.40;90.90;;;;;;5011156;28;20091;-57
2023/08/12 02:18:19;;;;;;;6.43;4.50;;;20.40;91.00;;;;;;5012377;28;20028;-57
2023/08/12 02:20:47;;;;;;;5.50;4.38;;;20.40;91.00;;;;;;5015074;28;20026;-56
2023/08/12 02:23:13;;;;;;;6.75;4.65;;;20.40;91.00;;;;;;5013562;28;20120;-57
2023/08/12 02:25:39;;;;;;;6.00;5.03;;;20.40;91.00;;;;;;5014686;28;20113;-57
2023/08/12 02:28:04;;;;;;;6.68;4.78;;;20.30;91.00;;;;;;5014925;28;20107;-57
2023/08/12 02:30:30;;;;;;;6.40;4.85;;;20.30;91.10;;;;;;5014936;28;20168;-57
2023/08/12 02:32:56;;;;;;;6.22;4.55;;;20.30;91.10;;;;;;5014723;28;20053;-57
2023/08/12 02:35:21;;;;;;;5.70;4.78;;;20.30;91.20;;;;;;5014766;28;20022;-57
2023/08/12 02:37:50;;;;;;;7.53;4.78;;;20.30;91.20;;;;;;5014813;28;20030;-58
2023/08/12 02:40:16;;;;;;;6.25;4.63;;;20.20;91.20;;;;;;5014688;28;20112;-59
2023/08/12 02:42:42;;;;;;;6.72;4.93;;;20.20;91.30;;;;;;5014513;28;20572;-54
2023/08/12 02:45:08;;;;;;;5.43;4.82;;;20.20;91.30;;;;;;5014781;28;20109;-57
2023/08/12 02:47:33;;;;;;;6.32;5.18;;;20.20;91.30;;;;;;5014350;28;20076;-55
2023/08/12 02:49:59;;;;;;;5.95;4.82;;;20.20;91.40;;;;;;5014395;28;20089;-57
2023/08/12 02:52:25;;;;;;;5.40;4.80;;;20.10;91.40;;;;;;5014769;28;20523;-53
2023/08/12 02:54:50;;;;;;;6.15;4.82;;;20.10;91.40;;;;;;5014472;28;20025;-57
2023/08/12 02:57:16;;;;;;;5.30;4.80;;;20.10;91.40;;;;;;5014697;28;20046;-56
2023/08/12 02:59:42;;;;;;;6.07;5.15;;;20.10;91.50;;;;;;5014197;28;20108;-54
2023/08/12 03:02:07;;;;;;;6.32;5.28;;;20.00;91.60;;;;;;5014413;28;20101;-58
2023/08/12 03:04:33;;;;;;;6.22;5.63;;;20.00;91.70;;;;;;5014482;28;20025;-57
2023/08/12 03:06:59;;;;;;;6.20;5.60;;;20.00;91.80;;;;;;5014398;28;20022;-57
2023/08/12 03:09:25;;;;;;;5.75;5.03;;;20.00;91.90;;;;;;5013971;28;20112;-57
2023/08/12 03:11:50;;;;;;;6.15;5.55;;;20.10;91.90;;;;;;5014361;28;20437;-58
2023/08/12 03:14:16;;;;;;;6.03;5.43;;;20.10;91.90;;;;;;5014110;28;20120;-55
2023/08/12 03:16:41;;;;;;;6.18;5.57;;;20.10;91.90;;;;;;5013829;28;20107;-58
2023/08/12 03:19:07;;;;;;;6.85;5.65;;;20.10;91.80;;;;;;5013918;28;20432;-57
2023/08/12 03:21:34;;;;;;;6.57;5.38;;;20.20;91.60;;;;;;5014049;28;20041;-57
2023/08/12 03:24:00;;;;;;;7.00;6.25;;;20.20;91.50;;;;;;5013978;28;20410;-57
2023/08/12 03:26:25;;;;;;;8.32;6.55;;;20.30;91.50;;;;;;5013755;28;20029;-56
2023/08/12 03:28:51;;;;;;;6.53;5.82;;;20.30;91.30;;;;;;5013532;28;20099;-58
2023/08/12 03:31:17;;;;;;;7.65;6.13;;;20.30;91.20;;;;;;5012322;28;20026;-57
2023/08/12 03:33:43;;;;;;;7.95;6.30;;;20.30;91.00;;;;;;5012468;28;20224;-57
2023/08/12 03:36:09;;;;;;;6.47;5.88;;;20.40;91.20;;;;;;5013188;28;20045;-58
2023/08/12 03:38:35;;;;;;;8.55;6.57;;;20.40;91.10;;;;;;5011191;28;20033;-57
2023/08/12 03:41:02;;;;;;;7.65;6.13;;;20.50;91.10;;;;;;5012980;28;20036;-57
2023/08/12 03:43:28;;;;;;;6.93;5.90;;;20.60;90.90;;;;;;5012513;28;20080;-57
2023/08/12 03:45:53;;;;;;;6.82;5.85;;;20.70;90.60;;;;;;5012847;28;20037;-58
2023/08/12 03:48:19;;;;;;;7.00;6.30;;;20.80;90.30;;;;;;5013363;28;20433;-57
2023/08/12 03:50:46;;;;;;;8.50;6.22;;;20.80;90.00;;;;;;5012777;28;20033;-54
2023/08/12 03:53:12;;;;;;;7.28;6.40;;;21.00;89.90;;;;;;5012795;28;20044;-56
2023/08/12 03:55:38;;;;;;;6.60;5.90;;;21.00;89.20;;;;;;5007477;28;20117;-57
2023/08/12 03:58:04;;;;;;;7.22;5.90;;;21.10;88.90;;;;;;4993768;28;20085;-57
2023/08/12 04:00:30;;;;;;;6.55;5.55;;;21.20;88.70;;;;;;5005998;28;20106;-58
2023/08/12 04:02:56;;;;;;;7.45;5.68;;;21.40;88.30;;;;;;5013285;28;20150;-58
2023/08/12 04:05:22;;;;;;;7.90;5.80;;;21.60;87.90;;;;;;5013261;28;20034;-58
2023/08/12 04:07:47;;;;;;;5.70;5.07;;;21.80;88.00;;;;;;5012803;28;20033;-52
2023/08/12 04:10:13;;;;;;;14.35;5.50;;;22.10;86.80;;;;;;5013076;28;20022;-57
2023/08/12 04:12:41;;;;;;;5.43;4.68;;;22.30;85.20;;;;;;5012831;28;20030;-57
2023/08/12 04:15:08;;;;;;;6.30;5.55;;;22.50;84.00;;;;;;5013187;28;20105;-57
2023/08/12 04:17:33;;;;;;;5.65;5.00;;;22.70;82.90;;;;;;5012762;28;20060;-58
2023/08/12 04:19:59;;;;;;;7.20;5.50;;;22.90;81.80;;;;;;5012679;28;20065;-57
2023/08/12 04:22:26;;;;;;;5.68;5.07;;;23.30;80.80;;;;;;5012692;28;20500;-56
2023/08/12 04:24:51;;;;;;;5.90;5.30;;;23.60;79.60;;;;;;5012744;28;20049;-59
2023/08/12 04:27:17;;;;;;;5.18;4.68;;;23.70;77.90;;;;;;5012648;28;20062;-59
2023/08/12 04:29:43;;;;;;;6.75;5.20;;;23.80;76.90;;;;;;5012637;28;20488;-58
2023/08/12 04:32:08;;;;;;;6.60;5.05;;;23.70;76.70;;;;;;5012619;28;20026;-59
2023/08/12 04:34:34;;;;;;;6.07;5.18;;;23.70;76.50;;;;;;5012744;28;20025;-59
2023/08/12 04:37:00;;;;;;;7.22;5.30;;;23.60;76.30;;;;;;5012655;28;20414;-58
2023/08/12 04:39:25;;;;;;;7.00;5.32;;;23.50;76.50;;;;;;5012628;28;20129;-59
2023/08/12 04:41:51;;;;;;;6.93;4.90;;;23.40;76.60;;;;;;5012051;28;20060;-58
2023/08/12 04:44:17;;;;;;;5.57;5.03;;;23.40;76.60;;;;;;5012198;28;20127;-54
2023/08/12 04:46:42;;;;;;;8.20;4.72;;;23.30;76.60;;;;;;5010673;28;20032;-58
2023/08/12 04:49:08;;;;;;;5.20;4.50;;;23.40;76.60;;;;;;5011441;28;20077;-54
2023/08/12 04:51:34;;;;;;;6.57;4.63;;;23.50;76.10;;;;;;5011047;28;20489;-58
2023/08/12 04:54:01;;;;;;;5.70;4.90;;;23.60;75.70;;;;;;5011790;28;20044;-57
2023/08/12 04:56:30;;;;;;;5.40;4.90;;;23.70;75.40;;;;;;5010973;28;20105;-58
2023/08/12 04:58:56;;;;;;;8.30;4.90;;;23.70;74.90;;;;;;5007865;28;20057;-56
2023/08/12 05:01:22;;;;;;;5.30;4.57;;;23.70;74.70;;;;;;4991782;28;20443;-58
2023/08/12 05:03:47;;;;;;;4.80;4.30;;;23.80;74.50;;;;;;5000034;28;20063;-58
2023/08/12 05:06:13;;;;;;;4.70;4.22;;;24.10;74.20;;;;;;5011004;28;20029;-56
2023/08/12 05:08:39;;;;;;;4.38;3.97;;;24.40;73.30;;;;;;5011873;28;20040;-55
2023/08/12 05:11:05;;;;;;;5.53;3.83;;;24.80;72.40;;;;;;5011898;28;20072;-58
2023/08/12 05:13:30;;;;;;;4.22;3.83;;;25.20;71.00;;;;;;5011756;28;20116;-59
2023/08/12 05:15:56;;;;;;;4.32;3.90;;;25.40;70.00;;;;;;5009898;28;20080;-57
2023/08/12 05:18:26;;;;;;;4.90;3.90;;;25.40;69.30;;;;;;5011529;28;20075;-59
2023/08/12 05:20:52;;;;;;;4.30;3.80;;;25.40;68.90;;;;;;5010662;28;20033;-55
2023/08/12 05:23:20;;;;;;;5.00;3.97;;;25.30;69.00;;;;;;5010438;28;20073;-55
2023/08/12 05:25:45;;;;;;;4.20;3.80;;;25.10;69.00;;;;;;5003502;28;20441;-57
2023/08/12 05:28:11;;;;;;;4.53;4.13;;;25.00;69.10;;;;;;5023678;28;20018;-59
2023/08/12 05:30:37;;;;;;;4.70;4.05;;;24.80;69.40;;;;;;5027691;28;20529;-52
2023/08/12 05:33:03;;;;;;;4.95;3.97;;;24.60;69.40;;;;;;5023432;28;20064;-56
2023/08/12 05:35:33;;;;;;;4.45;3.83;;;24.60;69.80;;;;;;5026557;28;20080;-55
2023/08/12 05:37:58;;;;;;;4.20;3.78;;;24.60;70.30;;;;;;5026630;28;20025;-58
2023/08/12 05:40:24;;;;;;;5.13;4.13;;;24.60;70.10;;;;;;5016674;28;20033;-57
2023/08/12 05:42:50;;;;;;;4.68;4.28;;;24.60;70.10;;;;;;5027853;28;20084;-54
2023/08/12 05:45:15;;;;;;;4.43;3.55;;;24.70;70.20;;;;;;5025580;28;20036;-57
2023/08/12 05:47:41;;;;;;;3.92;3.60;;;24.70;70.20;;;;;;5028592;28;20029;-58
2023/08/12 05:50:07;;;;;;;5.20;4.20;;;24.60;70.10;;;;;;5027150;28;20040;-58
2023/08/12 05:52:33;;;;;;;4.30;3.90;;;24.60;70.50;;;;;;5029877;28;20032;-57
2023/08/12 05:54:58;;;;;;;5.53;4.50;;;24.60;70.60;;;;;;5032726;28;20030;-58
2023/08/12 05:57:24;;;;;;;5.10;4.32;;;24.50;70.50;;;;;;5031693;28;20030;-58
2023/08/12 05:59:49;;;;;;;6.07;4.63;;;24.50;70.50;;;;;;5031497;28;20428;-58
2023/08/12 06:02:15;;;;;;;7.15;4.07;;;24.50;70.40;;;;;;5033767;28;20087;-58
2023/08/12 06:04:41;;;;;;;5.05;4.53;;;24.50;70.50;;;;;;5033566;28;20013;-58
2023/08/12 06:07:06;;;;;;;5.00;4.50;;;24.50;70.70;;;;;;5031606;28;20084;-58
2023/08/12 06:09:32;;;;;;;5.10;4.05;;;24.50;71.10;;;;;;5033286;28;20096;-57
2023/08/12 06:11:58;;;;;;;5.10;4.50;;;24.50;71.10;;;;;;5031780;28;20036;-54
2023/08/12 06:14:23;;;;;;;5.18;4.03;;;24.50;71.10;;;;;;5032355;28;20029;-58
2023/08/12 06:16:49;;;;;;;5.05;4.55;;;24.50;71.00;;;;;;5032912;28;20448;-58
2023/08/12 06:19:15;;;;;;;4.95;4.32;;;24.50;70.70;;;;;;5033199;28;20384;-59
2023/08/12 06:21:40;;;;;;;7.10;4.80;;;24.50;70.80;;;;;;5029069;28;20022;-55
2023/08/12 06:24:06;;;;;;;6.15;4.60;;;24.40;70.80;;;;;;5030108;28;20036;-59
2023/08/12 06:26:32;;;;;;;6.20;4.82;;;24.50;70.80;;;;;;5031455;28;20461;-56
2023/08/12 06:28:58;;;;;;;7.43;4.95;;;24.50;70.80;;;;;;5031608;28;20113;-58
2023/08/12 06:31:23;;;;;;;5.53;4.72;;;24.50;70.80;;;;;;5031865;28;20033;-57
2023/08/12 06:33:49;;;;;;;5.13;4.60;;;24.50;70.60;;;;;;5031790;28;20035;-57
2023/08/12 06:36:14;;;;;;;6.15;4.63;;;24.50;70.70;;;;;;5031744;28;20521;-58
2023/08/12 06:38:40;;;;;;;5.05;4.53;;;24.50;70.90;;;;;;5027274;28;20026;-58
2023/08/12 06:41:06;;;;;;;7.63;4.65;;;24.60;71.00;;;;;;5029123;28;20562;-54
2023/08/12 06:43:31;;;;;;;5.20;4.15;;;24.60;71.30;;;;;;5030979;28;20033;-55
2023/08/12 06:45:57;;;;;;;5.68;4.40;;;24.60;70.50;;;;;;5031768;28;20037;-56
2023/08/12 06:48:23;;;;;;;5.45;4.15;;;24.60;70.40;;;;;;5030608;28;20512;-56
2023/08/12 06:50:54;;;;;;;4.90;4.22;;;24.70;70.50;;;;;;5024531;28;20437;-55
2023/08/12 06:53:20;;;;;;;7.03;4.80;;;24.70;70.90;;;;;;5009966;28;20026;-58
2023/08/12 06:55:45;;;;;;;6.20;4.50;;;24.70;69.90;;;;;;5012795;28;20440;-58
2023/08/12 06:58:11;;;;;;;4.85;4.22;;;24.70;70.00;;;;;;5012736;28;20097;-58
2023/08/12 07:00:37;;;;;;;4.90;4.10;;;24.70;70.20;;;;;;5013495;28;20041;-59
2023/08/12 07:03:03;;;;;;;5.40;4.20;;;24.70;70.30;;;;;;5013756;28;20508;-59
2023/08/12 07:05:28;;;;;;;5.53;4.15;;;24.80;69.70;;;;;;5011649;28;20030;-57
2023/08/12 07:07:54;;;;;;;5.57;4.35;;;24.80;69.60;;;;;;5012809;28;20466;-58
2023/08/12 07:10:19;;;;;;;6.78;4.90;;;24.80;69.40;;;;;;5012957;28;20034;-56
2023/08/12 07:12:45;;;;;;;7.20;4.30;;;24.80;69.50;;;;;;5007197;28;20092;-57
2023/08/12 07:15:11;;;;;;;5.72;4.28;;;24.80;69.40;;;;;;5010221;28;20603;-55
2023/08/12 07:17:36;;;;;;;4.75;4.20;;;24.80;69.40;;;;;;5009759;28;20057;-55
2023/08/12 07:20:04;;;;;;;6.10;4.80;;;24.80;69.60;;;;;;4993652;28;20040;-57
2023/08/12 07:22:29;;;;;;;5.45;4.85;;;24.80;69.60;;;;;;4996310;28;20054;-58
2023/08/12 07:24:55;;;;;;;5.13;4.63;;;24.80;69.70;;;;;;5009279;28;20033;-58
2023/08/12 07:27:21;;;;;;;6.22;4.78;;;24.80;69.30;;;;;;5011596;28;20385;-58
2023/08/12 07:29:47;;;;;;;4.97;4.47;;;24.80;69.50;;;;;;5010005;28;20030;-54
2023/08/12 07:32:13;;;;;;;5.90;4.70;;;24.80;69.70;;;;;;5014503;28;20030;-54
2023/08/12 07:34:38;;;;;;;6.75;4.72;;;24.80;69.60;;;;;;5023618;28;20030;-58
2023/08/12 07:37:04;;;;;;;6.35;4.40;;;24.80;69.60;;;;;;5010044;28;20520;-57
2023/08/12 07:39:30;;;;;;;6.18;4.85;;;24.80;69.60;;;;;;5011158;28;20052;-54
2023/08/12 07:41:55;;;;;;;7.85;4.72;;;24.80;69.10;;;;;;5005454;28;20030;-58
2023/08/12 07:44:21;;;;;;;6.05;4.32;;;24.80;69.50;;;;;;5007976;28;20441;-58
2023/08/12 07:46:47;;;;;;;5.57;4.72;;;24.80;69.40;;;;;;5010505;28;20485;-58
2023/08/12 07:49:12;;;;;;;5.55;4.53;;;24.80;69.10;;;;;;5011465;28;20049;-59
2023/08/12 07:51:38;;;;;;;4.95;4.45;;;24.80;69.20;;;;;;5010758;28;20481;-58
2023/08/12 07:54:04;;;;;;;6.97;4.63;;;24.80;68.90;;;;;;5005222;28;20522;-55
2023/08/12 07:56:30;;;;;;;6.03;4.82;;;24.80;68.70;;;;;;5010659;28;20072;-55
2023/08/12 07:58:55;;;;;;;5.30;4.53;;;24.80;69.10;;;;;;5020314;28;20711;-56
2023/08/12 08:01:21;;;;;;;5.57;4.63;;;24.80;69.40;;;;;;5029947;28;20025;-58
2023/08/12 08:03:46;;;;;;;6.38;4.60;;;24.80;69.30;;;;;;5027677;28;20064;-56
2023/08/12 08:06:12;;;;;;;6.18;4.38;;;24.80;69.20;;;;;;5024573;28;20026;-58
2023/08/12 08:08:38;;;;;;;5.82;5.07;;;24.70;69.40;;;;;;5027568;28;20980;-57
2023/08/12 08:11:03;;;;;;;5.90;4.78;;;24.80;69.50;;;;;;5022155;28;20036;-56
2023/08/12 08:13:29;;;;;;;6.45;4.72;;;24.70;69.30;;;;;;5006448;28;20048;-57
2023/08/12 08:15:55;;;;;;;5.63;4.63;;;24.80;69.00;;;;;;5005440;28;20034;-57
2023/08/12 08:18:21;;;;;;;7.97;4.47;;;24.70;69.20;;;;;;5006110;28;20152;-56
2023/08/12 08:20:46;;;;;;;5.72;4.50;;;24.70;69.40;;;;;;5007960;28;20130;-52
2023/08/12 08:23:12;;;;;;;5.60;4.47;;;24.70;69.10;;;;;;5007848;28;20149;-55
2023/08/12 08:25:38;;;;;;;10.07;4.75;;;24.70;69.20;;;;;;5000683;28;20026;-53
2023/08/12 08:28:03;;;;;;;5.00;4.47;;;24.70;69.10;;;;;;5004833;28;20053;-53
2023/08/12 08:30:29;;;;;;;5.63;4.47;;;24.70;68.60;;;;;;5001413;28;20030;-57
2023/08/12 08:32:55;;;;;;;5.55;4.55;;;24.70;68.00;;;;;;5001238;28;20080;-55
2023/08/12 08:35:20;;;;;;;7.28;4.22;;;24.70;67.60;;;;;;5002510;28;20032;-57
2023/08/12 08:37:46;;;;;;;4.93;4.28;;;24.60;67.30;;;;;;4998742;28;20064;-58
2023/08/12 08:40:12;;;;;;;5.03;4.45;;;24.60;67.00;;;;;;4999668;28;20037;-55
2023/08/12 08:42:37;;;;;;;5.40;4.28;;;24.60;66.30;;;;;;5004189;28;20044;-54
2023/08/12 08:45:13;;;;;;;4.38;3.95;;;24.60;66.00;;;;;;5003011;28;20042;-55
2023/08/12 08:47:40;;;;;;;6.05;4.60;;;24.70;65.90;;;;;;4991860;28;20534;-56
2023/08/12 08:50:08;;;;;;;6.93;4.00;;;24.60;65.80;;;;;;4998140;28;20034;-59
2023/08/12 08:52:33;;;;;;;6.25;4.30;;;24.60;66.00;;;;;;4995458;28;20030;-59
2023/08/12 08:55:00;;;;;;;4.80;4.30;;;24.60;66.40;;;;;;5005341;28;20037;-58
2023/08/12 08:57:28;;;;;;;6.60;4.32;;;24.60;67.10;;;;;;4987748;28;20038;-57
2023/08/12 08:59:53;;;;;;;5.45;4.30;;;24.60;67.10;;;;;;4987228;28;20061;-55
2023/08/12 09:02:19;;;;;;;8.38;4.60;;;24.60;66.80;;;;;;4991011;28;20030;-56
2023/08/12 09:04:46;;;;;;;5.75;4.30;;;24.60;66.90;;;;;;4990667;28;20062;-56
2023/08/12 09:07:13;;;;;;;4.90;4.45;;;24.60;67.00;;;;;;4990742;28;20137;-58
2023/08/12 09:09:48;;;;;;;6.25;5.25;;;24.60;66.80;;;;;;4988772;28;20538;-58
2023/08/12 09:12:15;;;;;;;5.50;4.50;;;24.60;66.70;;;;;;4989577;28;20033;-58
2023/08/12 09:14:42;;;;;;;5.28;4.55;;;24.60;66.10;;;;;;4989936;28;20356;-58
2023/08/12 09:17:08;;;;;;;4.63;4.22;;;24.60;66.50;;;;;;4988910;28;20481;-55
2023/08/12 09:19:34;;;;;;;4.95;4.45;;;24.60;66.50;;;;;;4989206;28;20482;-57
2023/08/12 09:22:02;;;;;;;5.78;4.25;;;24.60;65.90;;;;;;4990945;28;20109;-58
2023/08/12 09:24:29;;;;;;;6.47;4.32;;;24.60;65.80;;;;;;4991442;28;20121;-57
2023/08/12 09:26:55;;;;;;;5.20;4.70;;;24.60;65.50;;;;;;4991777;28;20497;-58
2023/08/12 09:29:31;;;;;;;6.03;4.82;;;24.60;65.90;;;;;;4991804;28;20418;-59
2023/08/12 09:32:12;;;;;;;5.03;4.53;;;24.70;66.00;;;;;;4992359;28;20520;-56
2023/08/12 09:34:48;;;;;;;5.80;4.50;;;24.60;65.80;;;;;;4992197;28;20026;-55
2023/08/12 09:37:15;;;;;;;7.65;4.93;;;24.60;65.30;;;;;;4992065;28;20064;-58
2023/08/12 09:39:41;;;;;;;5.13;4.57;;;24.60;65.70;;;;;;4991703;28;20041;-58
2023/08/12 09:42:07;;;;;;;5.13;4.47;;;24.60;65.00;;;;;;4991826;28;20037;-53
2023/08/12 09:44:36;;;;;;;5.30;4.60;;;24.50;65.10;;;;;;4992131;28;20026;-58
2023/08/12 09:47:03;;;;;;;6.53;4.85;;;24.50;65.30;;;;;;4990307;28;20018;-57
2023/08/12 09:49:29;;;;;;;6.88;4.50;;;24.50;65.40;;;;;;4991104;28;20038;-58
2023/08/12 09:51:55;;;;;;;7.40;4.10;;;24.50;65.70;;;;;;4991624;28;20057;-58
2023/08/12 09:54:21;;;;;;;4.65;4.22;;;24.50;65.00;;;;;;4991598;28;20026;-55
2023/08/12 09:56:49;;;;;;;4.25;3.85;;;24.50;64.40;;;;;;4991978;28;20034;-58
2023/08/12 09:59:22;;;;;;;5.47;3.97;;;24.50;64.50;;;;;;4992191;28;20030;-59
2023/08/12 10:01:53;;;;;;;4.68;4.10;;;24.40;65.10;;;;;;4991728;28;20047;-57
2023/08/12 10:04:22;;;;;;;;;;;24.40;64.60;;;;;;4992226;28;20379;-56
2023/08/12 10:06:49;;;;;;;5.70;4.07;;;24.30;65.00;;;;;;4991756;28;19914;-55
2023/08/12 10:09:15;;;;;;;4.55;3.85;;;24.30;65.30;;;;;;4991950;28;20027;-58
2023/08/12 10:11:43;;;;;;;4.10;3.63;;;24.40;65.40;;;;;;4991539;28;20153;-57
2023/08/12 10:14:10;;;;;;;4.07;3.65;;;24.30;64.30;;;;;;4991880;28;20096;-57
2023/08/12 10:16:36;;;;;;;6.22;4.03;;;24.40;64.00;;;;;;4991668;28;20030;-57
2023/08/12 10:19:04;;;;;;;5.43;3.83;;;24.40;63.40;;;;;;4991490;28;20030;-59
2023/08/12 10:21:30;;;;;;;4.85;3.80;;;24.40;62.70;;;;;;4991767;28;20478;-58
2023/08/12 10:23:58;;;;;;;5.68;3.80;;;24.40;61.80;;;;;;4991283;28;20049;-58
2023/08/12 10:26:25;;;;;;;4.78;3.97;;;24.40;61.50;;;;;;4991319;28;20085;-58
2023/08/12 10:28:51;;;;;;;4.70;3.78;;;24.40;61.80;;;;;;4991542;28;20540;-56
2023/08/12 10:31:18;;;;;;;3.55;3.25;;;24.40;62.20;;;;;;4991854;28;20081;-58
2023/08/12 10:33:44;;;;;;;4.57;3.53;;;24.40;62.70;;;;;;4991518;28;20113;-57
2023/08/12 10:36:10;;;;;;;5.03;3.83;;;24.40;62.90;;;;;;4991673;28;20102;-58
2023/08/12 10:38:36;;;;;;;4.57;3.60;;;24.40;62.60;;;;;;4992299;28;20094;-58
2023/08/12 10:41:17;;;;;;;5.00;3.60;;;24.40;61.70;;;;;;4995066;28;20449;-57
2023/08/12 10:44:01;;;;;;;4.47;3.90;;;24.50;61.80;;;;;;4994943;28;20049;-58
2023/08/12 10:46:35;;;;;;;3.80;3.38;;;24.50;61.40;;;;;;4995393;28;20541;-58
2023/08/12 10:49:04;;;;;;;4.60;3.45;;;24.50;61.70;;;;;;4995205;28;20105;-57
2023/08/12 10:51:40;;;;;;;4.70;3.15;;;24.50;62.60;;;;;;4995160;28;20026;-57
2023/08/12 10:54:20;;;;;;;4.32;3.40;;;24.50;62.00;;;;;;4995041;28;20461;-57
2023/08/12 10:57:02;;;;;;;4.07;3.60;;;24.50;61.20;;;;;;4993477;28;20061;-58
2023/08/12 10:59:46;;;;;;;3.55;3.03;;;24.50;62.40;;;;;;4994582;28;20117;-59
2023/08/12 11:02:30;;;;;;;3.63;3.30;;;24.50;62.20;;;;;;4994324;28;20548;-58
2023/08/12 11:05:04;;;;;;;4.80;3.70;;;24.50;61.80;;;;;;4994777;28;20423;-55
2023/08/12 11:07:38;;;;;;;4.93;3.47;;;24.50;62.10;;;;;;4994559;28;20406;-57
2023/08/12 11:10:25;;;;;;;4.47;3.85;;;24.50;61.90;;;;;;4994371;28;20019;-58
2023/08/12 11:12:55;;;;;;;5.30;3.70;;;24.50;61.70;;;;;;4995039;28;20096;-57
2023/08/12 11:15:47;;;;;;;6.78;3.90;;;24.50;61.70;;;;;;4994676;28;20041;-58
2023/08/12 11:18:14;;;;;;;6.78;4.40;;;24.50;61.20;;;;;;4994652;28;20030;-58
2023/08/12 11:20:40;;;;;;;4.95;3.92;;;24.50;60.80;;;;;;4994246;28;20038;-57
2023/08/12 11:23:09;;;;;;;4.30;3.75;;;24.50;61.50;;;;;;4994029;28;20050;-55
2023/08/12 11:25:37;;;;;;;4.78;3.92;;;24.50;61.30;;;;;;4994547;28;20026;-58
2023/08/12 11:28:04;;;;;;;3.97;3.50;;;24.50;62.60;;;;;;4994447;28;20027;-58
2023/08/12 11:30:30;;;;;;;4.68;3.47;;;24.50;61.80;;;;;;4994434;28;20053;-56
2023/08/12 11:32:56;;;;;;;5.35;3.58;;;24.60;61.50;;;;;;4994081;28;20026;-56
2023/08/12 11:35:24;;;;;;;5.35;3.60;;;24.50;61.60;;;;;;4994038;28;20141;-58
2023/08/12 11:37:55;;;;;;;5.75;3.70;;;24.50;61.90;;;;;;4994243;28;20022;-58
2023/08/12 11:40:22;;;;;;;4.68;3.42;;;24.50;62.20;;;;;;4994630;28;20466;-58
2023/08/12 11:42:50;;;;;;;4.47;3.33;;;24.60;60.80;;;;;;4994159;28;20835;-57
2023/08/12 11:45:21;;;;;;;3.97;3.30;;;24.50;60.10;;;;;;4994018;28;20030;-58
2023/08/12 11:47:52;;;;;;;3.80;3.20;;;24.60;60.30;;;;;;4993979;28;20108;-58
2023/08/12 11:50:24;;;;;;;4.80;3.72;;;24.50;61.20;;;;;;4993220;28;20035;-57
2023/08/12 11:52:51;;;;;;;4.88;3.20;;;24.50;61.20;;;;;;4993972;28;20393;-54
2023/08/12 11:55:17;;;;;;;4.22;3.03;;;24.50;61.30;;;;;;4993799;28;20059;-57
2023/08/12 11:57:43;;;;;;;3.85;2.97;;;24.60;61.40;;;;;;4993601;28;20030;-55
2023/08/12 12:00:14;;;;;;;3.33;2.90;;;24.60;61.00;;;;;;4993623;28;20031;-57
2023/08/12 12:03:00;;;;;;;;;;;24.60;60.80;;;;;;4992637;28;20084;-56
2023/08/12 12:05:28;;;;;;;4.32;3.58;;;24.50;60.80;;;;;;4993272;28;19909;-57
2023/08/12 12:07:53;;;;;;;6.00;3.30;;;24.50;61.20;;;;;;4993450;28;20022;-57
2023/08/12 12:10:25;;;;;;;3.50;3.20;;;24.50;61.00;;;;;;4993391;28;20037;-54
2023/08/12 12:12:50;;;;;;;4.97;3.55;;;24.50;60.50;;;;;;4993362;28;20410;-58
2023/08/12 12:15:16;;;;;;;5.10;3.78;;;24.50;60.50;;;;;;4993546;28;20033;-55
2023/08/12 12:17:42;;;;;;;4.38;3.50;;;24.50;60.40;;;;;;4993263;28;20036;-57
2023/08/12 12:20:10;;;;;;;3.63;2.92;;;24.50;60.20;;;;;;4993241;28;20109;-59
2023/08/12 12:22:36;;;;;;;3.83;3.15;;;24.50;60.80;;;;;;4993160;28;20069;-57
2023/08/12 12:25:10;;;;;;;7.85;3.80;;;24.50;60.20;;;;;;4993055;28;20105;-58
2023/08/12 12:27:37;;;;;;;4.10;3.50;;;24.50;60.50;;;;;;4993357;28;20027;-59
2023/08/12 12:30:03;;;;;;;4.25;3.30;;;24.50;61.10;;;;;;4993013;28;20018;-57
2023/08/12 12:32:29;;;;;;;5.70;3.20;;;24.60;61.40;;;;;;4993168;28;20140;-57
2023/08/12 12:34:55;;;;;;;5.03;3.55;;;24.50;62.00;;;;;;4992882;28;20053;-56
2023/08/12 12:37:20;;;;;;;4.20;3.58;;;24.50;62.50;;;;;;4992447;28;20482;-57
2023/08/12 12:39:46;;;;;;;4.68;3.60;;;24.50;62.00;;;;;;4993151;28;20018;-57
2023/08/12 12:42:12;;;;;;;5.15;3.13;;;24.50;61.40;;;;;;4992887;28;20490;-56
2023/08/12 12:44:38;;;;;;;4.25;3.55;;;24.60;61.90;;;;;;4992965;28;20035;-58
2023/08/12 12:47:04;;;;;;;3.58;3.08;;;24.50;61.70;;;;;;4993247;28;20018;-57